sensor_id;sensor_type;location;lat;lon;timestamp;P1;durP1;ratioP1;P2;durP2;ratioP2
10884;SDS011;5495;53.252;10.390;2023-03-21T00:00:18;18.93;;;13.93;;
10884;SDS011;5495;53.252;10.390;2023-03-21T00:02:48;22.93;;;13.67;;
10884;SDS011;5495;53.252;10.390;2023-03-21T00:05:15;20.20;;;14.33;;
10884;SDS011;5495;53.252;10.390;2023-03-21T00:07:47;22.27;;;13.93;;
10884;SDS011;5495;53.252;10.390;2023-03-21T00:10:21;22.23;;;14.73;;
10884;SDS011;5495;53.252;10.390;2023-03-21T00:12:57;18.80;;;14.33;;
10884;SDS011;5495;53.252;10.390;2023-03-21T00:15:34;18.63;;;14.83;;
10884;SDS011;5495;53.252;10.390;2023-03-21T00:21:39;20.07;;;14.23;;
10884;SDS011;5495;53.252;10.390;2023-03-21T00:24:29;23.87;;;14.63;;
10884;SDS011;5495;53.252;10.390;2023-03-21T00:27:19;20.37;;;14.70;;
10884;SDS011;5495;53.252;10.390;2023-03-21T00:29:58;22.10;;;15.00;;
10884;SDS011;5495;53.252;10.390;2023-03-21T00:33:28;20.97;;;13.37;;
10884;SDS011;5495;53.252;10.390;2023-03-21T00:38:34;19.93;;;14.20;;
10884;SDS011;5495;53.252;10.390;2023-03-21T00:41:24;22.27;;;14.53;;
10884;SDS011;5495;53.252;10.390;2023-03-21T00:44:20;19.17;;;13.40;;
10884;SDS011;5495;53.252;10.390;2023-03-21T00:49:52;21.20;;;15.33;;
10884;SDS011;5495;53.252;10.390;2023-03-21T00:52:42;22.97;;;14.03;;
10884;SDS011;5495;53.252;10.390;2023-03-21T00:58:36;19.77;;;13.90;;
10884;SDS011;5495;53.252;10.390;2023-03-21T01:01:22;20.17;;;14.37;;
10884;SDS011;5495;53.252;10.390;2023-03-21T01:04:00;20.63;;;14.50;;
10884;SDS011;5495;53.252;10.390;2023-03-21T01:06:44;19.13;;;13.57;;
10884;SDS011;5495;53.252;10.390;2023-03-21T01:12:27;18.77;;;13.90;;
10884;SDS011;5495;53.252;10.390;2023-03-21T01:15:07;21.43;;;14.83;;
10884;SDS011;5495;53.252;10.390;2023-03-21T01:21:15;18.53;;;13.03;;
10884;SDS011;5495;53.252;10.390;2023-03-21T01:23:46;18.97;;;14.40;;
10884;SDS011;5495;53.252;10.390;2023-03-21T01:26:14;18.80;;;13.90;;
10884;SDS011;5495;53.252;10.390;2023-03-21T01:28:49;19.17;;;13.97;;
10884;SDS011;5495;53.252;10.390;2023-03-21T01:34:47;20.70;;;13.60;;
10884;SDS011;5495;53.252;10.390;2023-03-21T01:40:12;16.20;;;12.67;;
10884;SDS011;5495;53.252;10.390;2023-03-21T01:42:58;19.17;;;14.10;;
10884;SDS011;5495;53.252;10.390;2023-03-21T01:48:36;18.60;;;13.13;;
10884;SDS011;5495;53.252;10.390;2023-03-21T01:51:16;18.50;;;13.20;;
10884;SDS011;5495;53.252;10.390;2023-03-21T01:54:12;21.10;;;14.50;;
10884;SDS011;5495;53.252;10.390;2023-03-21T01:57:21;19.23;;;13.10;;
10884;SDS011;5495;53.252;10.390;2023-03-21T01:59:57;20.60;;;13.97;;
10884;SDS011;5495;53.252;10.390;2023-03-21T02:02:31;20.03;;;14.50;;
10884;SDS011;5495;53.252;10.390;2023-03-21T02:05:06;18.80;;;12.93;;
10884;SDS011;5495;53.252;10.390;2023-03-21T02:07:45;19.00;;;12.40;;
10884;SDS011;5495;53.252;10.390;2023-03-21T02:10:44;17.30;;;12.40;;
10884;SDS011;5495;53.252;10.390;2023-03-21T02:16:29;17.00;;;12.63;;
10884;SDS011;5495;53.252;10.390;2023-03-21T02:19:41;18.07;;;13.33;;
10884;SDS011;5495;53.252;10.390;2023-03-21T02:29:50;17.70;;;12.43;;
10884;SDS011;5495;53.252;10.390;2023-03-21T02:36:15;19.73;;;13.03;;
10884;SDS011;5495;53.252;10.390;2023-03-21T02:39:03;18.10;;;12.77;;
10884;SDS011;5495;53.252;10.390;2023-03-21T02:42:28;18.10;;;12.70;;
10884;SDS011;5495;53.252;10.390;2023-03-21T02:45:07;18.13;;;13.40;;
10884;SDS011;5495;53.252;10.390;2023-03-21T02:47:50;17.60;;;12.33;;
10884;SDS011;5495;53.252;10.390;2023-03-21T02:50:39;17.27;;;12.57;;
10884;SDS011;5495;53.252;10.390;2023-03-21T02:53:27;16.03;;;12.60;;
10884;SDS011;5495;53.252;10.390;2023-03-21T02:56:23;17.83;;;12.90;;
10884;SDS011;5495;53.252;10.390;2023-03-21T02:59:08;16.33;;;12.57;;
10884;SDS011;5495;53.252;10.390;2023-03-21T03:01:56;18.23;;;13.07;;
10884;SDS011;5495;53.252;10.390;2023-03-21T03:04:51;15.83;;;12.77;;
10884;SDS011;5495;53.252;10.390;2023-03-21T03:07:47;18.40;;;12.83;;
10884;SDS011;5495;53.252;10.390;2023-03-21T03:10:57;17.97;;;12.47;;
10884;SDS011;5495;53.252;10.390;2023-03-21T03:13:56;19.20;;;12.63;;
10884;SDS011;5495;53.252;10.390;2023-03-21T03:16:47;18.37;;;13.07;;
10884;SDS011;5495;53.252;10.390;2023-03-21T03:19:31;19.53;;;13.27;;
10884;SDS011;5495;53.252;10.390;2023-03-21T03:22:16;16.80;;;11.97;;
10884;SDS011;5495;53.252;10.390;2023-03-21T03:24:53;18.93;;;12.83;;
10884;SDS011;5495;53.252;10.390;2023-03-21T03:27:41;19.03;;;13.77;;
10884;SDS011;5495;53.252;10.390;2023-03-21T03:34:06;17.33;;;12.90;;
10884;SDS011;5495;53.252;10.390;2023-03-21T03:36:43;19.17;;;13.20;;
10884;SDS011;5495;53.252;10.390;2023-03-21T03:42:22;17.00;;;12.83;;
10884;SDS011;5495;53.252;10.390;2023-03-21T03:45:04;17.57;;;13.17;;
10884;SDS011;5495;53.252;10.390;2023-03-21T03:47:39;18.83;;;13.17;;
10884;SDS011;5495;53.252;10.390;2023-03-21T03:50:15;16.77;;;12.60;;
10884;SDS011;5495;53.252;10.390;2023-03-21T03:52:48;18.77;;;14.07;;
10884;SDS011;5495;53.252;10.390;2023-03-21T03:55:19;19.40;;;13.70;;
10884;SDS011;5495;53.252;10.390;2023-03-21T03:57:49;19.93;;;14.20;;
10884;SDS011;5495;53.252;10.390;2023-03-21T04:00:19;18.30;;;13.60;;
10884;SDS011;5495;53.252;10.390;2023-03-21T04:02:53;19.00;;;14.10;;
10884;SDS011;5495;53.252;10.390;2023-03-21T04:05:26;18.60;;;13.37;;
10884;SDS011;5495;53.252;10.390;2023-03-21T04:07:58;20.07;;;13.93;;
10884;SDS011;5495;53.252;10.390;2023-03-21T04:10:34;20.37;;;15.13;;
10884;SDS011;5495;53.252;10.390;2023-03-21T04:13:02;19.23;;;14.53;;
10884;SDS011;5495;53.252;10.390;2023-03-21T04:15:36;19.53;;;14.67;;
10884;SDS011;5495;53.252;10.390;2023-03-21T04:18:21;21.90;;;15.60;;
10884;SDS011;5495;53.252;10.390;2023-03-21T04:20:50;20.30;;;15.07;;
10884;SDS011;5495;53.252;10.390;2023-03-21T04:23:25;18.93;;;14.37;;
10884;SDS011;5495;53.252;10.390;2023-03-21T04:25:58;20.33;;;14.80;;
10884;SDS011;5495;53.252;10.390;2023-03-21T04:28:40;21.87;;;15.00;;
10884;SDS011;5495;53.252;10.390;2023-03-21T04:31:08;23.47;;;15.90;;
10884;SDS011;5495;53.252;10.390;2023-03-21T04:33:37;21.17;;;15.60;;
10884;SDS011;5495;53.252;10.390;2023-03-21T04:36:21;21.20;;;14.93;;
10884;SDS011;5495;53.252;10.390;2023-03-21T04:38:58;22.70;;;16.13;;
10884;SDS011;5495;53.252;10.390;2023-03-21T04:41:26;23.47;;;15.80;;
10884;SDS011;5495;53.252;10.390;2023-03-21T04:43:56;23.20;;;15.90;;
10884;SDS011;5495;53.252;10.390;2023-03-21T04:46:23;24.17;;;15.93;;
10884;SDS011;5495;53.252;10.390;2023-03-21T04:48:51;23.47;;;16.27;;
10884;SDS011;5495;53.252;10.390;2023-03-21T04:51:25;25.07;;;16.27;;
10884;SDS011;5495;53.252;10.390;2023-03-21T04:56:40;23.23;;;15.83;;
10884;SDS011;5495;53.252;10.390;2023-03-21T04:59:36;24.53;;;15.17;;
10884;SDS011;5495;53.252;10.390;2023-03-21T05:03:11;24.80;;;16.10;;
10884;SDS011;5495;53.252;10.390;2023-03-21T05:08:39;26.23;;;16.47;;
10884;SDS011;5495;53.252;10.390;2023-03-21T05:11:26;25.00;;;16.73;;
10884;SDS011;5495;53.252;10.390;2023-03-21T05:14:09;23.50;;;15.80;;
10884;SDS011;5495;53.252;10.390;2023-03-21T05:16:42;26.60;;;17.43;;
10884;SDS011;5495;53.252;10.390;2023-03-21T05:19:12;27.17;;;18.10;;
10884;SDS011;5495;53.252;10.390;2023-03-21T05:21:54;25.37;;;17.37;;
10884;SDS011;5495;53.252;10.390;2023-03-21T05:24:34;25.00;;;17.43;;
10884;SDS011;5495;53.252;10.390;2023-03-21T05:27:03;25.27;;;17.77;;
10884;SDS011;5495;53.252;10.390;2023-03-21T05:29:47;25.23;;;17.43;;
10884;SDS011;5495;53.252;10.390;2023-03-21T05:32:27;25.30;;;17.20;;
10884;SDS011;5495;53.252;10.390;2023-03-21T05:35:09;29.67;;;18.33;;
10884;SDS011;5495;53.252;10.390;2023-03-21T05:37:44;24.10;;;16.97;;
10884;SDS011;5495;53.252;10.390;2023-03-21T05:40:15;25.27;;;17.87;;
10884;SDS011;5495;53.252;10.390;2023-03-21T05:42:47;24.57;;;16.13;;
10884;SDS011;5495;53.252;10.390;2023-03-21T05:45:19;24.57;;;16.80;;
10884;SDS011;5495;53.252;10.390;2023-03-21T05:47:46;22.63;;;17.30;;
10884;SDS011;5495;53.252;10.390;2023-03-21T05:50:24;24.17;;;16.13;;
10884;SDS011;5495;53.252;10.390;2023-03-21T05:52:52;25.67;;;17.97;;
10884;SDS011;5495;53.252;10.390;2023-03-21T05:58:15;27.23;;;17.90;;
10884;SDS011;5495;53.252;10.390;2023-03-21T06:00:43;26.40;;;19.17;;
10884;SDS011;5495;53.252;10.390;2023-03-21T06:03:12;27.00;;;18.43;;
10884;SDS011;5495;53.252;10.390;2023-03-21T06:05:41;28.00;;;18.50;;
10884;SDS011;5495;53.252;10.390;2023-03-21T06:08:25;29.87;;;19.10;;
10884;SDS011;5495;53.252;10.390;2023-03-21T06:10:57;29.53;;;18.80;;
10884;SDS011;5495;53.252;10.390;2023-03-21T06:13:25;26.53;;;18.60;;
10884;SDS011;5495;53.252;10.390;2023-03-21T06:15:54;26.53;;;18.60;;
10884;SDS011;5495;53.252;10.390;2023-03-21T06:18:24;26.20;;;18.30;;
10884;SDS011;5495;53.252;10.390;2023-03-21T06:20:54;28.97;;;19.10;;
10884;SDS011;5495;53.252;10.390;2023-03-21T06:26:53;28.03;;;18.67;;
10884;SDS011;5495;53.252;10.390;2023-03-21T06:29:24;27.53;;;18.13;;
10884;SDS011;5495;53.252;10.390;2023-03-21T06:31:56;26.13;;;17.43;;
10884;SDS011;5495;53.252;10.390;2023-03-21T06:37:47;25.40;;;18.67;;
10884;SDS011;5495;53.252;10.390;2023-03-21T06:40:50;31.17;;;20.43;;
10884;SDS011;5495;53.252;10.390;2023-03-21T06:43:34;29.40;;;19.20;;
10884;SDS011;5495;53.252;10.390;2023-03-21T06:46:27;26.30;;;18.57;;
10884;SDS011;5495;53.252;10.390;2023-03-21T06:49:14;27.73;;;19.07;;
10884;SDS011;5495;53.252;10.390;2023-03-21T06:55:17;29.47;;;19.40;;
10884;SDS011;5495;53.252;10.390;2023-03-21T06:58:22;27.03;;;18.97;;
10884;SDS011;5495;53.252;10.390;2023-03-21T07:04:12;26.77;;;18.60;;
10884;SDS011;5495;53.252;10.390;2023-03-21T07:06:52;27.47;;;18.60;;
10884;SDS011;5495;53.252;10.390;2023-03-21T07:09:42;25.20;;;18.30;;
10884;SDS011;5495;53.252;10.390;2023-03-21T07:12:19;26.70;;;19.73;;
10884;SDS011;5495;53.252;10.390;2023-03-21T07:15:14;25.53;;;18.77;;
10884;SDS011;5495;53.252;10.390;2023-03-21T07:18:00;26.50;;;18.43;;
10884;SDS011;5495;53.252;10.390;2023-03-21T07:20:51;27.60;;;17.97;;
10884;SDS011;5495;53.252;10.390;2023-03-21T07:23:36;29.70;;;18.67;;
10884;SDS011;5495;53.252;10.390;2023-03-21T07:26:20;29.40;;;19.80;;
10884;SDS011;5495;53.252;10.390;2023-03-21T07:28:56;26.23;;;17.80;;
10884;SDS011;5495;53.252;10.390;2023-03-21T07:32:02;27.47;;;18.77;;
10884;SDS011;5495;53.252;10.390;2023-03-21T07:34:53;24.40;;;17.37;;
10884;SDS011;5495;53.252;10.390;2023-03-21T07:37:26;26.60;;;18.67;;
10884;SDS011;5495;53.252;10.390;2023-03-21T07:39:58;25.77;;;18.03;;
10884;SDS011;5495;53.252;10.390;2023-03-21T07:42:25;28.20;;;18.07;;
10884;SDS011;5495;53.252;10.390;2023-03-21T07:45:00;27.30;;;18.67;;
10884;SDS011;5495;53.252;10.390;2023-03-21T07:47:35;24.73;;;17.17;;
10884;SDS011;5495;53.252;10.390;2023-03-21T07:50:29;26.23;;;18.73;;
10884;SDS011;5495;53.252;10.390;2023-03-21T07:52:59;24.73;;;18.10;;
10884;SDS011;5495;53.252;10.390;2023-03-21T07:55:32;27.07;;;18.43;;
10884;SDS011;5495;53.252;10.390;2023-03-21T07:58:02;26.27;;;18.17;;
10884;SDS011;5495;53.252;10.390;2023-03-21T08:00:57;22.80;;;15.97;;
10884;SDS011;5495;53.252;10.390;2023-03-21T08:03:32;23.23;;;17.33;;
10884;SDS011;5495;53.252;10.390;2023-03-21T08:06:25;25.43;;;16.93;;
10884;SDS011;5495;53.252;10.390;2023-03-21T08:08:56;26.77;;;18.33;;
10884;SDS011;5495;53.252;10.390;2023-03-21T08:11:34;24.63;;;17.17;;
10884;SDS011;5495;53.252;10.390;2023-03-21T08:14:12;23.00;;;16.00;;
10884;SDS011;5495;53.252;10.390;2023-03-21T08:16:56;21.97;;;15.67;;
10884;SDS011;5495;53.252;10.390;2023-03-21T08:19:41;23.50;;;14.87;;
10884;SDS011;5495;53.252;10.390;2023-03-21T08:25:24;21.77;;;14.80;;
10884;SDS011;5495;53.252;10.390;2023-03-21T08:28:09;22.87;;;14.60;;
10884;SDS011;5495;53.252;10.390;2023-03-21T08:30:41;23.57;;;15.10;;
10884;SDS011;5495;53.252;10.390;2023-03-21T08:33:20;19.93;;;13.83;;
10884;SDS011;5495;53.252;10.390;2023-03-21T08:35:53;21.10;;;14.57;;
10884;SDS011;5495;53.252;10.390;2023-03-21T08:38:27;18.60;;;13.90;;
10884;SDS011;5495;53.252;10.390;2023-03-21T08:41:16;17.93;;;12.63;;
10884;SDS011;5495;53.252;10.390;2023-03-21T08:44:02;16.77;;;12.93;;
10884;SDS011;5495;53.252;10.390;2023-03-21T08:46:36;18.77;;;13.37;;
10884;SDS011;5495;53.252;10.390;2023-03-21T08:49:08;17.23;;;13.10;;
10884;SDS011;5495;53.252;10.390;2023-03-21T08:51:42;18.63;;;13.37;;
10884;SDS011;5495;53.252;10.390;2023-03-21T08:54:21;17.60;;;12.07;;
10884;SDS011;5495;53.252;10.390;2023-03-21T08:57:03;19.23;;;12.47;;
10884;SDS011;5495;53.252;10.390;2023-03-21T08:59:35;16.97;;;12.13;;
10884;SDS011;5495;53.252;10.390;2023-03-21T09:04:58;17.50;;;12.50;;
10884;SDS011;5495;53.252;10.390;2023-03-21T09:07:35;13.53;;;11.27;;
10884;SDS011;5495;53.252;10.390;2023-03-21T09:10:39;16.10;;;12.37;;
10884;SDS011;5495;53.252;10.390;2023-03-21T09:14:01;16.37;;;10.87;;
10884;SDS011;5495;53.252;10.390;2023-03-21T09:20:12;16.47;;;11.97;;
10884;SDS011;5495;53.252;10.390;2023-03-21T09:22:38;17.93;;;12.37;;
10884;SDS011;5495;53.252;10.390;2023-03-21T09:27:59;17.60;;;12.90;;
10884;SDS011;5495;53.252;10.390;2023-03-21T09:30:35;20.53;;;13.37;;
10884;SDS011;5495;53.252;10.390;2023-03-21T09:33:15;18.40;;;12.93;;
10884;SDS011;5495;53.252;10.390;2023-03-21T09:35:57;19.33;;;12.83;;
10884;SDS011;5495;53.252;10.390;2023-03-21T09:38:48;19.63;;;13.77;;
10884;SDS011;5495;53.252;10.390;2023-03-21T09:43:01;21.43;;;13.80;;
10884;SDS011;5495;53.252;10.390;2023-03-21T09:48:27;20.30;;;14.20;;
10884;SDS011;5495;53.252;10.390;2023-03-21T09:51:30;22.37;;;14.03;;
10884;SDS011;5495;53.252;10.390;2023-03-21T09:54:04;19.90;;;13.97;;
10884;SDS011;5495;53.252;10.390;2023-03-21T09:56:40;24.03;;;15.97;;
10884;SDS011;5495;53.252;10.390;2023-03-21T09:59:26;24.27;;;14.73;;
10884;SDS011;5495;53.252;10.390;2023-03-21T10:02:34;20.43;;;14.00;;
10884;SDS011;5495;53.252;10.390;2023-03-21T10:07:51;24.93;;;15.30;;
10884;SDS011;5495;53.252;10.390;2023-03-21T10:10:36;21.13;;;14.93;;
10884;SDS011;5495;53.252;10.390;2023-03-21T10:13:18;19.00;;;13.60;;
10884;SDS011;5495;53.252;10.390;2023-03-21T10:16:08;17.17;;;12.77;;
10884;SDS011;5495;53.252;10.390;2023-03-21T10:18:54;18.47;;;13.10;;
10884;SDS011;5495;53.252;10.390;2023-03-21T10:21:27;18.93;;;12.43;;
10884;SDS011;5495;53.252;10.390;2023-03-21T10:24:08;18.07;;;12.50;;
10884;SDS011;5495;53.252;10.390;2023-03-21T10:26:47;19.30;;;12.33;;
10884;SDS011;5495;53.252;10.390;2023-03-21T10:29:20;17.17;;;11.57;;
10884;SDS011;5495;53.252;10.390;2023-03-21T10:32:04;16.43;;;11.53;;
10884;SDS011;5495;53.252;10.390;2023-03-21T10:34:51;15.00;;;11.10;;
10884;SDS011;5495;53.252;10.390;2023-03-21T10:37:26;17.20;;;12.37;;
10884;SDS011;5495;53.252;10.390;2023-03-21T10:40:02;16.03;;;11.57;;
10884;SDS011;5495;53.252;10.390;2023-03-21T10:42:53;18.73;;;11.30;;
10884;SDS011;5495;53.252;10.390;2023-03-21T10:45:44;15.10;;;11.30;;
10884;SDS011;5495;53.252;10.390;2023-03-21T10:48:22;14.70;;;10.67;;
10884;SDS011;5495;53.252;10.390;2023-03-21T10:50:57;14.07;;;10.53;;
10884;SDS011;5495;53.252;10.390;2023-03-21T10:54:04;15.70;;;10.83;;
10884;SDS011;5495;53.252;10.390;2023-03-21T10:56:36;15.37;;;10.83;;
10884;SDS011;5495;53.252;10.390;2023-03-21T10:59:24;14.93;;;10.53;;
10884;SDS011;5495;53.252;10.390;2023-03-21T11:02:20;19.27;;;10.53;;
10884;SDS011;5495;53.252;10.390;2023-03-21T11:05:16;15.47;;;10.73;;
10884;SDS011;5495;53.252;10.390;2023-03-21T11:07:57;15.47;;;10.83;;
10884;SDS011;5495;53.252;10.390;2023-03-21T11:10:29;15.60;;;10.40;;
10884;SDS011;5495;53.252;10.390;2023-03-21T11:13:15;14.57;;;9.77;;
10884;SDS011;5495;53.252;10.390;2023-03-21T11:15:56;15.40;;;9.63;;
10884;SDS011;5495;53.252;10.390;2023-03-21T11:18:51;13.83;;;10.10;;
10884;SDS011;5495;53.252;10.390;2023-03-21T11:21:54;13.60;;;9.63;;
10884;SDS011;5495;53.252;10.390;2023-03-21T11:24:37;16.00;;;10.30;;
10884;SDS011;5495;53.252;10.390;2023-03-21T11:27:23;13.57;;;9.90;;
10884;SDS011;5495;53.252;10.390;2023-03-21T11:29:59;14.97;;;9.80;;
10884;SDS011;5495;53.252;10.390;2023-03-21T11:32:37;14.23;;;10.13;;
10884;SDS011;5495;53.252;10.390;2023-03-21T11:35:12;12.93;;;9.53;;
10884;SDS011;5495;53.252;10.390;2023-03-21T11:37:55;13.17;;;9.60;;
10884;SDS011;5495;53.252;10.390;2023-03-21T11:40:25;14.77;;;10.87;;
10884;SDS011;5495;53.252;10.390;2023-03-21T11:43:23;13.53;;;9.43;;
10884;SDS011;5495;53.252;10.390;2023-03-21T11:46:12;14.53;;;10.13;;
10884;SDS011;5495;53.252;10.390;2023-03-21T11:49:00;16.87;;;10.60;;
10884;SDS011;5495;53.252;10.390;2023-03-21T11:51:50;14.57;;;11.07;;
10884;SDS011;5495;53.252;10.390;2023-03-21T11:54:57;12.20;;;8.97;;
10884;SDS011;5495;53.252;10.390;2023-03-21T11:57:57;13.60;;;9.43;;
10884;SDS011;5495;53.252;10.390;2023-03-21T12:00:37;14.27;;;9.73;;
10884;SDS011;5495;53.252;10.390;2023-03-21T12:07:00;12.03;;;9.20;;
10884;SDS011;5495;53.252;10.390;2023-03-21T12:16:51;12.17;;;8.83;;
10884;SDS011;5495;53.252;10.390;2023-03-21T12:23:23;11.70;;;7.87;;
10884;SDS011;5495;53.252;10.390;2023-03-21T12:33:51;10.80;;;7.03;;
10884;SDS011;5495;53.252;10.390;2023-03-21T12:37:10;10.60;;;7.17;;
10884;SDS011;5495;53.252;10.390;2023-03-21T12:40:21;9.73;;;7.77;;
10884;SDS011;5495;53.252;10.390;2023-03-21T12:43:19;9.80;;;7.23;;
10884;SDS011;5495;53.252;10.390;2023-03-21T12:49:50;12.03;;;7.53;;
10884;SDS011;5495;53.252;10.390;2023-03-21T12:52:39;8.83;;;6.90;;
10884;SDS011;5495;53.252;10.390;2023-03-21T12:55:40;10.03;;;7.60;;
10884;SDS011;5495;53.252;10.390;2023-03-21T12:58:14;9.80;;;6.83;;
10884;SDS011;5495;53.252;10.390;2023-03-21T13:02:03;10.13;;;7.20;;
10884;SDS011;5495;53.252;10.390;2023-03-21T13:07:38;10.17;;;7.10;;
10884;SDS011;5495;53.252;10.390;2023-03-21T13:10:14;9.00;;;7.03;;
10884;SDS011;5495;53.252;10.390;2023-03-21T13:22:28;9.70;;;7.07;;
10884;SDS011;5495;53.252;10.390;2023-03-21T13:25:34;12.33;;;7.30;;
10884;SDS011;5495;53.252;10.390;2023-03-21T13:28:45;10.47;;;8.00;;
10884;SDS011;5495;53.252;10.390;2023-03-21T13:31:42;8.80;;;6.70;;
10884;SDS011;5495;53.252;10.390;2023-03-21T13:34:42;9.60;;;6.97;;
10884;SDS011;5495;53.252;10.390;2023-03-21T13:37:19;9.90;;;7.43;;
10884;SDS011;5495;53.252;10.390;2023-03-21T13:40:11;9.87;;;7.27;;
10884;SDS011;5495;53.252;10.390;2023-03-21T13:43:00;9.20;;;6.40;;
10884;SDS011;5495;53.252;10.390;2023-03-21T13:46:33;10.67;;;7.07;;
10884;SDS011;5495;53.252;10.390;2023-03-21T13:49:24;9.60;;;6.90;;
10884;SDS011;5495;53.252;10.390;2023-03-21T13:51:55;9.60;;;6.70;;
10884;SDS011;5495;53.252;10.390;2023-03-21T13:54:51;8.73;;;6.37;;
10884;SDS011;5495;53.252;10.390;2023-03-21T13:57:34;9.47;;;6.40;;
10884;SDS011;5495;53.252;10.390;2023-03-21T14:00:15;8.10;;;6.73;;
10884;SDS011;5495;53.252;10.390;2023-03-21T14:02:57;11.70;;;6.67;;
10884;SDS011;5495;53.252;10.390;2023-03-21T14:05:34;7.67;;;6.17;;
10884;SDS011;5495;53.252;10.390;2023-03-21T14:08:03;9.13;;;6.30;;
10884;SDS011;5495;53.252;10.390;2023-03-21T14:10:50;9.67;;;6.87;;
10884;SDS011;5495;53.252;10.390;2023-03-21T14:13:23;7.20;;;5.90;;
10884;SDS011;5495;53.252;10.390;2023-03-21T14:15:53;9.73;;;5.90;;
10884;SDS011;5495;53.252;10.390;2023-03-21T14:18:39;10.93;;;6.90;;
10884;SDS011;5495;53.252;10.390;2023-03-21T14:21:19;12.10;;;6.73;;
10884;SDS011;5495;53.252;10.390;2023-03-21T14:23:58;9.33;;;6.33;;
10884;SDS011;5495;53.252;10.390;2023-03-21T14:29:22;8.77;;;6.90;;
10884;SDS011;5495;53.252;10.390;2023-03-21T14:34:46;7.70;;;5.40;;
10884;SDS011;5495;53.252;10.390;2023-03-21T14:37:28;10.07;;;6.30;;
10884;SDS011;5495;53.252;10.390;2023-03-21T14:40:17;7.97;;;6.43;;
10884;SDS011;5495;53.252;10.390;2023-03-21T14:45:38;8.07;;;6.43;;
10884;SDS011;5495;53.252;10.390;2023-03-21T14:48:27;10.70;;;6.47;;
10884;SDS011;5495;53.252;10.390;2023-03-21T14:51:31;10.20;;;7.00;;
10884;SDS011;5495;53.252;10.390;2023-03-21T14:54:25;9.77;;;6.67;;
10884;SDS011;5495;53.252;10.390;2023-03-21T14:57:22;10.00;;;6.37;;
10884;SDS011;5495;53.252;10.390;2023-03-21T15:03:36;10.43;;;7.37;;
10884;SDS011;5495;53.252;10.390;2023-03-21T15:09:37;9.40;;;7.17;;
10884;SDS011;5495;53.252;10.390;2023-03-21T15:12:36;9.03;;;6.83;;
10884;SDS011;5495;53.252;10.390;2023-03-21T15:15:55;10.30;;;7.17;;
10884;SDS011;5495;53.252;10.390;2023-03-21T15:18:30;10.30;;;6.60;;
10884;SDS011;5495;53.252;10.390;2023-03-21T15:21:25;10.33;;;6.50;;
10884;SDS011;5495;53.252;10.390;2023-03-21T15:24:23;7.93;;;5.43;;
10884;SDS011;5495;53.252;10.390;2023-03-21T15:27:01;8.13;;;5.70;;
10884;SDS011;5495;53.252;10.390;2023-03-21T15:43:06;7.67;;;5.20;;
10884;SDS011;5495;53.252;10.390;2023-03-21T15:45:54;8.67;;;5.13;;
10884;SDS011;5495;53.252;10.390;2023-03-21T15:49:05;7.37;;;4.90;;
10884;SDS011;5495;53.252;10.390;2023-03-21T15:51:53;9.50;;;5.10;;
10884;SDS011;5495;53.252;10.390;2023-03-21T15:54:59;6.53;;;4.87;;
10884;SDS011;5495;53.252;10.390;2023-03-21T15:57:27;7.50;;;4.90;;
10884;SDS011;5495;53.252;10.390;2023-03-21T16:00:20;5.97;;;5.00;;
10884;SDS011;5495;53.252;10.390;2023-03-21T16:02:58;6.87;;;5.10;;
10884;SDS011;5495;53.252;10.390;2023-03-21T16:06:14;7.87;;;4.67;;
10884;SDS011;5495;53.252;10.390;2023-03-21T16:08:44;6.63;;;4.87;;
10884;SDS011;5495;53.252;10.390;2023-03-21T16:11:23;7.87;;;5.13;;
10884;SDS011;5495;53.252;10.390;2023-03-21T16:14:07;8.70;;;5.47;;
10884;SDS011;5495;53.252;10.390;2023-03-21T16:16:37;8.03;;;5.40;;
10884;SDS011;5495;53.252;10.390;2023-03-21T16:19:06;7.13;;;5.43;;
10884;SDS011;5495;53.252;10.390;2023-03-21T16:21:54;5.33;;;4.53;;
10884;SDS011;5495;53.252;10.390;2023-03-21T16:24:36;6.83;;;5.30;;
10884;SDS011;5495;53.252;10.390;2023-03-21T16:27:13;7.03;;;5.33;;
10884;SDS011;5495;53.252;10.390;2023-03-21T16:29:56;5.10;;;4.53;;
10884;SDS011;5495;53.252;10.390;2023-03-21T16:32:32;8.63;;;4.67;;
10884;SDS011;5495;53.252;10.390;2023-03-21T16:35:12;7.60;;;4.70;;
10884;SDS011;5495;53.252;10.390;2023-03-21T16:37:56;7.87;;;5.33;;
10884;SDS011;5495;53.252;10.390;2023-03-21T16:40:28;5.37;;;4.60;;
10884;SDS011;5495;53.252;10.390;2023-03-21T16:43:06;7.07;;;4.60;;
10884;SDS011;5495;53.252;10.390;2023-03-21T16:45:38;8.17;;;5.13;;
10884;SDS011;5495;53.252;10.390;2023-03-21T16:48:09;5.83;;;4.80;;
10884;SDS011;5495;53.252;10.390;2023-03-21T16:50:41;7.03;;;5.10;;
10884;SDS011;5495;53.252;10.390;2023-03-21T16:53:26;8.67;;;5.27;;
10884;SDS011;5495;53.252;10.390;2023-03-21T16:55:56;10.37;;;5.20;;
10884;SDS011;5495;53.252;10.390;2023-03-21T16:58:31;6.60;;;5.37;;
10884;SDS011;5495;53.252;10.390;2023-03-21T17:01:10;7.23;;;5.03;;
10884;SDS011;5495;53.252;10.390;2023-03-21T17:03:43;8.63;;;5.20;;
10884;SDS011;5495;53.252;10.390;2023-03-21T17:06:18;9.97;;;4.93;;
10884;SDS011;5495;53.252;10.390;2023-03-21T17:08:57;8.60;;;5.30;;
10884;SDS011;5495;53.252;10.390;2023-03-21T17:11:26;7.37;;;4.77;;
10884;SDS011;5495;53.252;10.390;2023-03-21T17:14:01;10.90;;;5.83;;
10884;SDS011;5495;53.252;10.390;2023-03-21T17:16:31;8.57;;;4.87;;
10884;SDS011;5495;53.252;10.390;2023-03-21T17:19:00;8.17;;;5.27;;
10884;SDS011;5495;53.252;10.390;2023-03-21T17:21:28;7.93;;;4.97;;
10884;SDS011;5495;53.252;10.390;2023-03-21T17:23:59;6.73;;;5.00;;
10884;SDS011;5495;53.252;10.390;2023-03-21T17:26:33;7.10;;;5.33;;
10884;SDS011;5495;53.252;10.390;2023-03-21T17:29:02;6.93;;;5.70;;
10884;SDS011;5495;53.252;10.390;2023-03-21T17:31:31;7.50;;;5.30;;
10884;SDS011;5495;53.252;10.390;2023-03-21T17:34:10;7.50;;;5.63;;
10884;SDS011;5495;53.252;10.390;2023-03-21T17:36:38;7.53;;;5.43;;
10884;SDS011;5495;53.252;10.390;2023-03-21T17:39:18;6.93;;;5.50;;
10884;SDS011;5495;53.252;10.390;2023-03-21T17:41:47;6.93;;;5.73;;
10884;SDS011;5495;53.252;10.390;2023-03-21T17:44:20;10.33;;;6.10;;
10884;SDS011;5495;53.252;10.390;2023-03-21T17:46:58;9.63;;;6.67;;
10884;SDS011;5495;53.252;10.390;2023-03-21T17:49:38;7.17;;;5.47;;
10884;SDS011;5495;53.252;10.390;2023-03-21T17:52:13;9.50;;;6.20;;
10884;SDS011;5495;53.252;10.390;2023-03-21T17:54:42;11.53;;;7.57;;
10884;SDS011;5495;53.252;10.390;2023-03-21T17:57:09;12.20;;;7.23;;
10884;SDS011;5495;53.252;10.390;2023-03-21T17:59:39;10.93;;;7.30;;
10884;SDS011;5495;53.252;10.390;2023-03-21T18:02:10;10.13;;;7.73;;
10884;SDS011;5495;53.252;10.390;2023-03-21T18:04:37;9.67;;;7.73;;
10884;SDS011;5495;53.252;10.390;2023-03-21T18:07:13;10.67;;;7.23;;
10884;SDS011;5495;53.252;10.390;2023-03-21T18:09:41;10.30;;;7.67;;
10884;SDS011;5495;53.252;10.390;2023-03-21T18:12:09;14.13;;;9.00;;
10884;SDS011;5495;53.252;10.390;2023-03-21T18:14:37;14.13;;;9.17;;
10884;SDS011;5495;53.252;10.390;2023-03-21T18:17:31;13.90;;;8.57;;
10884;SDS011;5495;53.252;10.390;2023-03-21T18:20:03;14.77;;;10.23;;
10884;SDS011;5495;53.252;10.390;2023-03-21T18:22:35;16.17;;;10.70;;
10884;SDS011;5495;53.252;10.390;2023-03-21T18:25:05;12.80;;;9.27;;
10884;SDS011;5495;53.252;10.390;2023-03-21T18:27:34;12.07;;;9.97;;
10884;SDS011;5495;53.252;10.390;2023-03-21T18:30:11;13.03;;;9.07;;